Time;durP1;ratioP1;P1;durP2;ratioP2;P2;SDS_P1;SDS_P2;PMS_P1;PMS_P2;Temp;Humidity;BMP_temperature;BMP_pressure;BME280_temperature;BME280_humidity;BME280_pressure;Samples;Min_cycle;Max_cycle;Signal;HPM_P1;HPM_P2
2022/01/07 00:02:01;;;;;;;14.32;4.35;;;4.30;99.90;;;;;;5055320;28;20078;-82
2022/01/07 00:04:27;;;;;;;7.72;3.00;;;4.30;99.90;;;;;;5055247;28;20096;-82
2022/01/07 00:06:53;;;;;;;9.32;3.42;;;4.20;99.90;;;;;;5055528;28;20155;-82
2022/01/07 00:09:18;;;;;;;9.55;3.30;;;4.20;99.90;;;;;;5055569;28;20136;-82
2022/01/07 00:11:44;;;;;;;9.88;4.18;;;4.20;99.90;;;;;;5055110;28;20025;-82
2022/01/07 00:14:10;;;;;;;7.75;3.38;;;4.20;99.90;;;;;;5055238;28;20559;-82
2022/01/07 00:16:36;;;;;;;10.23;3.70;;;4.10;99.90;;;;;;5054822;28;20021;-82
2022/01/07 00:19:02;;;;;;;10.95;4.50;;;4.10;99.90;;;;;;5054943;28;20028;-82
2022/01/07 00:21:27;;;;;;;14.55;4.00;;;4.10;99.90;;;;;;5053981;28;20461;-82
2022/01/07 00:23:53;;;;;;;9.43;4.10;;;4.10;99.90;;;;;;5054939;28;20083;-82
2022/01/07 00:26:18;;;;;;;7.93;4.50;;;4.10;99.90;;;;;;5054864;28;20028;-82
2022/01/07 00:28:44;;;;;;;6.10;3.08;;;4.10;99.90;;;;;;5054797;28;20036;-82
2022/01/07 00:31:09;;;;;;;10.57;4.63;;;4.10;99.90;;;;;;5054776;28;20480;-82
2022/01/07 00:33:35;;;;;;;5.15;3.65;;;4.10;99.90;;;;;;5054791;28;20028;-82
2022/01/07 00:36:01;;;;;;;9.02;3.83;;;4.10;99.90;;;;;;5054724;28;20485;-82
2022/01/07 00:38:29;;;;;;;10.18;4.20;;;4.10;99.90;;;;;;5054505;28;20523;-82
2022/01/07 00:40:55;;;;;;;8.05;3.63;;;4.10;99.90;;;;;;5054608;28;20052;-82
2022/01/07 00:43:20;;;;;;;8.95;3.80;;;4.10;99.90;;;;;;5054607;28;20056;-82
2022/01/07 00:45:46;;;;;;;6.47;3.72;;;4.00;99.90;;;;;;5053604;28;20056;-82
2022/01/07 00:48:11;;;;;;;8.10;4.03;;;4.00;99.90;;;;;;5054498;28;20034;-82
2022/01/07 00:50:37;;;;;;;10.77;3.80;;;4.00;99.90;;;;;;5054415;28;20061;-82
2022/01/07 00:53:03;;;;;;;9.80;4.97;;;4.00;99.90;;;;;;5054388;28;20025;-82
2022/01/07 00:55:28;;;;;;;8.30;4.80;;;4.00;99.90;;;;;;5054292;28;20029;-82
2022/01/07 00:57:55;;;;;;;9.85;5.15;;;4.00;99.90;;;;;;5054184;28;20029;-82
2022/01/07 01:00:23;;;;;;;10.18;5.00;;;3.90;99.90;;;;;;5054119;28;20029;-82
2022/01/07 01:02:49;;;;;;;8.82;5.03;;;3.90;99.90;;;;;;5054136;28;20104;-82
2022/01/07 01:05:15;;;;;;;10.70;5.30;;;3.90;99.90;;;;;;5054058;28;20108;-82
2022/01/07 01:07:42;;;;;;;9.05;4.78;;;3.90;99.90;;;;;;5053835;28;21066;-82
2022/01/07 01:10:08;;;;;;;11.55;5.28;;;3.90;99.90;;;;;;5052823;28;20028;-82
2022/01/07 01:12:36;;;;;;;8.77;5.47;;;3.90;99.90;;;;;;5053942;28;20017;-82
2022/01/07 01:15:03;;;;;;;12.10;6.25;;;3.90;1.00;;;;;;5053985;28;20096;-82
2022/01/07 01:17:29;;;;;;;9.35;5.40;;;3.80;99.90;;;;;;5052498;28;20362;-82
2022/01/07 01:19:54;;;;;;;8.82;5.22;;;3.90;1.00;;;;;;5053790;28;20522;-82
2022/01/07 01:22:20;;;;;;;9.80;5.55;;;3.80;1.00;;;;;;5053879;28;20029;-82
2022/01/07 01:24:45;;;;;;;7.90;4.95;;;3.80;1.00;;;;;;5052414;28;20028;-82
2022/01/07 01:27:11;;;;;;;9.45;5.03;;;3.90;1.00;;;;;;5053041;28;20025;-82
2022/01/07 01:29:37;;;;;;;9.52;5.43;;;3.90;1.00;;;;;;5052511;28;20067;-82
2022/01/07 01:32:53;;;;;;;7.95;5.22;;;3.90;1.00;;;;;;5052220;28;20024;-81
2022/01/07 01:35:19;;;;;;;6.97;4.65;;;3.90;1.00;;;;;;5033909;28;20052;-82
2022/01/07 01:41:58;;;;;;;6.28;5.25;;;3.80;1.00;;;;;;5033796;28;20520;-82
2022/01/07 01:44:24;;;;;;;12.48;5.75;;;3.90;30.80;;;;;;5033645;28;20029;-82
2022/01/07 01:46:49;;;;;;;12.75;5.60;;;3.80;79.20;;;;;;5033505;28;20017;-82
2022/01/07 01:49:15;;;;;;;9.00;5.82;;;3.80;99.90;;;;;;5033528;28;20108;-82
2022/01/07 01:51:41;;;;;;;7.72;5.28;;;3.80;99.90;;;;;;5033497;28;20093;-82
2022/01/07 01:54:06;;;;;;;9.88;6.18;;;3.70;99.90;;;;;;5036369;28;20078;-82
2022/01/07 01:56:33;;;;;;;9.48;5.82;;;3.80;99.90;;;;;;5053555;28;20021;-82
2022/01/07 01:58:59;;;;;;;10.90;5.78;;;3.70;99.90;;;;;;5053148;28;20071;-82
2022/01/07 02:01:25;;;;;;;9.20;6.05;;;3.70;99.90;;;;;;5053384;28;20528;-82
2022/01/07 02:03:50;;;;;;;9.02;5.78;;;3.70;99.90;;;;;;5053148;28;20017;-82
2022/01/07 02:06:16;;;;;;;8.70;4.68;;;3.80;99.90;;;;;;5053176;28;20433;-82
2022/01/07 02:08:42;;;;;;;9.32;4.45;;;3.70;99.90;;;;;;5053457;28;20122;-82
2022/01/07 02:11:07;;;;;;;7.35;4.53;;;3.70;99.90;;;;;;5053228;28;20125;-82
2022/01/07 02:13:33;;;;;;;8.77;4.90;;;3.70;99.90;;;;;;5053055;28;20507;-82
2022/01/07 02:15:59;;;;;;;8.90;5.38;;;3.60;99.90;;;;;;5053059;28;20021;-82
2022/01/07 02:18:24;;;;;;;7.60;5.10;;;3.70;99.90;;;;;;5053070;28;20060;-82
2022/01/07 02:20:50;;;;;;;7.93;4.65;;;3.60;99.90;;;;;;5051664;28;20114;-82
2022/01/07 02:23:19;;;;;;;8.88;5.28;;;3.70;99.90;;;;;;5053018;28;20024;-82
2022/01/07 02:25:45;;;;;;;7.78;5.28;;;3.70;99.90;;;;;;5052955;28;20063;-82
2022/01/07 02:28:13;;;;;;;10.75;6.10;;;3.80;99.90;;;;;;5052948;28;20025;-82
2022/01/07 02:30:39;;;;;;;11.05;6.13;;;3.70;99.90;;;;;;5051811;28;20033;-82
2022/01/07 02:33:05;;;;;;;9.55;6.22;;;3.70;99.90;;;;;;5052868;28;20044;-82
2022/01/07 02:35:33;;;;;;;12.05;6.43;;;3.70;99.90;;;;;;5052867;28;20029;-82
2022/01/07 02:38:00;;;;;;;7.72;5.80;;;3.90;99.90;;;;;;5052796;28;20090;-82
2022/01/07 02:40:26;;;;;;;9.30;5.40;;;3.80;99.90;;;;;;5056765;28;20032;-82
2022/01/07 02:42:52;;;;;;;8.63;6.15;;;3.80;99.90;;;;;;5056788;28;20388;-82
2022/01/07 02:45:18;;;;;;;7.97;5.55;;;3.80;99.90;;;;;;5056900;28;20436;-82
2022/01/07 02:47:55;;;;;;;8.95;6.35;;;3.80;99.90;;;;;;5056612;28;20430;-82
2022/01/07 02:50:23;;;;;;;9.50;6.50;;;3.80;99.90;;;;;;5057032;28;20031;-82
2022/01/07 02:52:50;;;;;;;11.02;6.50;;;3.90;99.90;;;;;;5056656;28;20100;-82
2022/01/07 02:55:15;;;;;;;11.40;6.53;;;3.80;99.90;;;;;;5056610;28;20884;-82
2022/01/07 02:57:41;;;;;;;13.25;7.05;;;3.90;99.90;;;;;;5056512;28;20028;-82
2022/01/07 03:00:50;;;;;;;14.80;7.00;;;3.90;99.90;;;;;;5042799;28;20036;-82
2022/01/07 03:03:16;;;;;;;11.13;7.10;;;3.90;99.90;;;;;;5036588;28;20096;-82
2022/01/07 03:09:05;;;;;;;11.57;7.47;;;3.90;99.90;;;;;;5031970;28;20048;-82
2022/01/07 03:11:30;;;;;;;12.07;7.03;;;4.00;99.90;;;;;;5036275;28;20040;-82
2022/01/07 03:13:56;;;;;;;9.65;6.32;;;4.00;99.90;;;;;;5036252;28;20030;-82
2022/01/07 03:16:22;;;;;;;11.95;6.68;;;3.90;99.90;;;;;;5036218;28;20110;-82
2022/01/07 03:18:48;;;;;;;11.65;6.95;;;4.00;99.90;;;;;;5036136;28;20021;-82
2022/01/07 03:21:14;;;;;;;11.25;6.78;;;4.00;99.90;;;;;;5035373;28;20117;-82
2022/01/07 03:23:41;;;;;;;12.48;6.75;;;4.00;99.90;;;;;;5056382;28;20102;-82
2022/01/07 03:26:10;;;;;;;10.82;6.75;;;4.00;99.90;;;;;;5054743;28;20021;-82
2022/01/07 03:28:36;;;;;;;10.38;7.13;;;4.10;99.90;;;;;;5056046;28;20079;-81
2022/01/07 03:31:03;;;;;;;11.40;6.88;;;4.10;99.90;;;;;;5054795;28;20065;-82
2022/01/07 03:33:28;;;;;;;12.95;7.00;;;4.10;99.90;;;;;;5055879;28;20100;-82
2022/01/07 03:35:54;;;;;;;10.70;7.13;;;4.10;99.90;;;;;;5054626;28;20057;-82
2022/01/07 03:38:20;;;;;;;9.85;6.55;;;4.10;99.90;;;;;;5054496;28;20025;-82
2022/01/07 03:40:47;;;;;;;10.18;7.05;;;4.10;99.90;;;;;;5055680;28;20055;-81
2022/01/07 03:43:12;;;;;;;9.10;6.70;;;4.10;99.90;;;;;;5055749;28;20056;-82
2022/01/07 03:45:38;;;;;;;13.70;6.72;;;4.10;99.90;;;;;;5055657;28;20060;-82
2022/01/07 03:48:04;;;;;;;12.13;7.43;;;4.10;99.90;;;;;;5054385;28;20021;-82
2022/01/07 03:50:30;;;;;;;10.68;5.82;;;4.10;99.90;;;;;;5054874;28;20047;-82
2022/01/07 03:52:57;;;;;;;10.95;6.93;;;4.10;99.90;;;;;;5055408;28;20063;-82
2022/01/07 03:55:28;;;;;;;11.05;7.60;;;4.10;99.90;;;;;;5055445;28;20031;-82
2022/01/07 03:57:54;;;;;;;15.27;7.80;;;4.20;99.90;;;;;;5055780;28;20083;-82
2022/01/07 04:00:26;;;;;;;16.08;7.15;;;4.10;99.90;;;;;;5055342;28;20052;-82
2022/01/07 04:02:53;;;;;;;10.80;7.32;;;4.10;99.90;;;;;;5055262;28;20047;-82
2022/01/07 04:05:22;;;;;;;15.25;7.97;;;4.10;99.90;;;;;;5055324;28;20021;-82
2022/01/07 04:07:48;;;;;;;13.50;7.80;;;4.10;99.90;;;;;;5055444;28;20021;-82
2022/01/07 04:13:36;;;;;;;12.77;7.60;;;4.10;99.90;;;;;;5035468;28;20495;-82
2022/01/07 04:16:02;;;;;;;15.38;9.07;;;4.20;99.90;;;;;;5035169;28;20043;-82
2022/01/07 04:18:27;;;;;;;13.88;7.90;;;4.20;99.90;;;;;;5035491;28;20026;-82
2022/01/07 04:20:53;;;;;;;14.10;7.97;;;4.20;99.90;;;;;;5053621;28;20025;-82
2022/01/07 04:23:19;;;;;;;17.35;8.82;;;4.20;99.90;;;;;;5054982;28;20076;-82
2022/01/07 04:25:44;;;;;;;10.73;7.07;;;4.20;99.90;;;;;;5054812;28;20021;-82
2022/01/07 04:28:10;;;;;;;13.65;7.50;;;4.20;99.90;;;;;;5053643;28;20042;-82
2022/01/07 04:30:39;;;;;;;12.85;7.63;;;4.20;99.90;;;;;;5054782;28;20029;-81
2022/01/07 04:33:06;;;;;;;17.88;8.70;;;4.20;99.90;;;;;;5054632;28;20486;-82
2022/01/07 04:35:33;;;;;;;15.77;8.73;;;4.20;99.90;;;;;;5053551;28;20024;-82
2022/01/07 04:37:59;;;;;;;15.98;8.38;;;4.30;99.90;;;;;;5054768;28;20021;-82
2022/01/07 04:40:27;;;;;;;15.60;8.45;;;4.30;99.90;;;;;;5054587;28;20623;-82
2022/01/07 04:42:53;;;;;;;14.40;8.80;;;4.30;99.90;;;;;;5054829;28;20483;-82
2022/01/07 04:45:19;;;;;;;11.65;7.82;;;4.30;99.90;;;;;;5054528;28;20029;-82
2022/01/07 04:47:45;;;;;;;13.77;7.70;;;4.30;99.90;;;;;;5054922;28;20027;-82
2022/01/07 04:50:14;;;;;;;16.98;8.27;;;4.30;99.90;;;;;;5054296;28;20028;-82
2022/01/07 04:52:41;;;;;;;14.02;8.80;;;4.30;99.90;;;;;;5054356;28;20025;-81
2022/01/07 04:55:07;;;;;;;9.82;7.95;;;4.40;99.90;;;;;;5054489;28;20074;-82
2022/01/07 04:57:33;;;;;;;12.15;7.32;;;4.40;99.90;;;;;;5054059;28;20489;-82
2022/01/07 04:59:58;;;;;;;15.18;9.00;;;4.40;99.90;;;;;;5054279;28;20092;-82
2022/01/07 05:02:24;;;;;;;13.07;7.50;;;4.40;99.90;;;;;;5053223;28;20025;-81
2022/01/07 05:04:49;;;;;;;12.32;8.63;;;4.40;99.90;;;;;;5054144;28;20025;-82
2022/01/07 05:07:16;;;;;;;14.35;8.35;;;4.40;99.90;;;;;;5054114;28;20052;-82
2022/01/07 05:09:42;;;;;;;17.20;8.10;;;4.40;99.90;;;;;;5053904;28;20071;-82
2022/01/07 05:12:46;;;;;;;15.93;9.00;;;4.40;99.90;;;;;;5053967;28;20021;-82
2022/01/07 05:15:13;;;;;;;17.55;9.18;;;4.40;99.90;;;;;;5054033;28;20049;-82
2022/01/07 05:17:39;;;;;;;12.65;8.13;;;4.50;99.90;;;;;;5053896;28;20025;-82
2022/01/07 05:20:06;;;;;;;17.33;9.75;;;4.50;99.90;;;;;;5053780;28;20075;-82
2022/01/07 05:22:31;;;;;;;17.10;8.90;;;4.50;99.90;;;;;;5053792;28;20029;-82
2022/01/07 05:24:57;;;;;;;15.20;9.90;;;4.50;99.90;;;;;;5053921;28;20377;-82
2022/01/07 05:27:22;;;;;;;14.32;9.10;;;4.50;99.90;;;;;;5052543;28;20063;-82
2022/01/07 05:29:48;;;;;;;15.80;9.20;;;4.50;99.90;;;;;;5053658;28;20155;-82
2022/01/07 05:32:13;;;;;;;16.73;9.77;;;4.50;99.90;;;;;;5053670;28;20021;-82
2022/01/07 05:34:39;;;;;;;14.18;9.25;;;4.50;99.90;;;;;;5053601;28;20017;-82
2022/01/07 05:37:04;;;;;;;19.02;9.57;;;4.50;99.90;;;;;;5053577;28;20100;-82
2022/01/07 05:39:30;;;;;;;16.70;9.23;;;4.50;99.90;;;;;;5052149;28;20032;-82
2022/01/07 05:41:58;;;;;;;16.52;10.02;;;4.50;99.90;;;;;;5053446;28;20025;-82
2022/01/07 05:44:23;;;;;;;14.07;9.63;;;4.60;99.90;;;;;;5053518;28;20017;-82
2022/01/07 05:46:49;;;;;;;15.23;8.63;;;4.50;99.90;;;;;;5053433;28;20041;-82
2022/01/07 05:49:14;;;;;;;15.85;9.18;;;4.50;99.90;;;;;;5053346;28;20036;-82
2022/01/07 05:51:41;;;;;;;14.27;9.02;;;4.50;99.90;;;;;;5053463;28;20021;-83
2022/01/07 05:54:08;;;;;;;14.93;9.10;;;4.50;99.90;;;;;;5053573;28;20395;-82
2022/01/07 05:57:06;;;;;;;15.75;10.00;;;4.50;99.90;;;;;;5053260;28;20021;-83
2022/01/07 05:59:31;;;;;;;14.38;9.85;;;4.50;99.90;;;;;;5033675;28;20032;-83
2022/01/07 06:01:57;;;;;;;17.02;9.65;;;4.60;99.90;;;;;;5033353;28;20030;-83
2022/01/07 06:04:22;;;;;;;14.27;9.15;;;4.50;99.90;;;;;;5033283;28;20025;-83
2022/01/07 06:06:48;;;;;;;16.35;9.48;;;4.60;99.90;;;;;;5033282;28;20360;-82
2022/01/07 06:09:13;;;;;;;13.77;9.05;;;4.60;99.90;;;;;;5033077;28;20049;-82
2022/01/07 06:11:39;;;;;;;15.70;10.02;;;4.60;99.90;;;;;;5033221;28;20068;-82
2022/01/07 06:14:04;;;;;;;16.33;9.07;;;4.60;99.90;;;;;;5036728;28;20037;-82
2022/01/07 06:16:30;;;;;;;14.23;9.38;;;4.60;99.90;;;;;;5039729;28;20747;-83
2022/01/07 06:18:58;;;;;;;14.90;9.40;;;4.60;99.90;;;;;;5039735;28;20048;-82
2022/01/07 06:21:25;;;;;;;15.25;10.95;;;4.50;99.90;;;;;;5038460;28;20033;-82
2022/01/07 06:23:50;;;;;;;14.82;9.88;;;4.60;99.90;;;;;;5039778;28;20517;-83
2022/01/07 06:26:17;;;;;;;16.13;10.05;;;4.60;99.90;;;;;;5039718;28;20096;-83
2022/01/07 06:28:43;;;;;;;16.48;9.98;;;4.50;99.90;;;;;;5039607;28;20473;-82
2022/01/07 06:31:09;;;;;;;14.68;8.98;;;4.50;99.90;;;;;;5039604;28;20026;-83
2022/01/07 06:33:34;;;;;;;14.98;8.95;;;4.40;99.90;;;;;;5046999;28;20053;-81
2022/01/07 06:36:51;;;;;;;16.90;10.25;;;4.40;99.90;;;;;;5059390;28;20040;-81
2022/01/07 06:39:40;;;;;;;17.60;10.40;;;4.30;99.90;;;;;;5055929;28;20072;-81
2022/01/07 06:42:06;;;;;;;17.33;9.93;;;4.20;99.90;;;;;;5041151;28;20065;-80
2022/01/07 06:44:33;;;;;;;19.88;10.30;;;4.20;99.90;;;;;;5048304;28;20568;-81
2022/01/07 06:46:58;;;;;;;18.40;10.43;;;4.10;99.90;;;;;;5037953;28;20021;-81
2022/01/07 06:49:24;;;;;;;16.48;10.90;;;4.00;99.90;;;;;;5040749;28;20641;-80
2022/01/07 06:51:51;;;;;;;18.13;10.85;;;3.90;99.90;;;;;;5045040;28;20025;-80
2022/01/07 06:54:17;;;;;;;20.80;11.82;;;3.90;99.90;;;;;;5042524;28;20043;-80
2022/01/07 06:56:44;;;;;;;18.40;10.00;;;3.80;99.90;;;;;;5044038;28;20025;-81
2022/01/07 06:59:12;;;;;;;18.90;11.05;;;3.80;99.90;;;;;;5043427;28;20337;-80
2022/01/07 07:01:38;;;;;;;14.05;9.63;;;3.70;99.90;;;;;;5044091;28;20026;-81
2022/01/07 07:04:04;;;;;;;20.23;12.35;;;3.60;99.90;;;;;;5040027;28;20456;-80
2022/01/07 07:06:29;;;;;;;20.63;11.10;;;3.60;99.90;;;;;;5044078;28;20033;-81
2022/01/07 07:08:55;;;;;;;18.23;10.65;;;3.60;99.90;;;;;;5056002;28;20124;-81
2022/01/07 07:11:20;;;;;;;20.10;11.27;;;3.50;99.90;;;;;;5056045;28;20028;-81
2022/01/07 07:13:46;;;;;;;16.80;10.55;;;3.50;99.90;;;;;;5056520;28;20108;-81
2022/01/07 07:16:11;;;;;;;22.65;12.80;;;3.40;99.90;;;;;;5056703;28;20041;-81
2022/01/07 07:18:37;;;;;;;14.98;10.77;;;3.40;99.90;;;;;;5056522;28;20032;-81
2022/01/07 07:21:02;;;;;;;22.48;11.57;;;3.30;99.90;;;;;;5056289;28;20040;-81
2022/01/07 07:23:28;;;;;;;19.20;10.82;;;3.30;99.90;;;;;;5056199;28;20025;-81
2022/01/07 07:25:53;;;;;;;18.98;11.73;;;3.30;99.90;;;;;;5053243;28;20468;-81
2022/01/07 07:28:19;;;;;;;16.70;11.15;;;3.30;99.90;;;;;;5051913;28;20401;-80
2022/01/07 07:30:45;;;;;;;20.50;11.57;;;3.20;99.90;;;;;;5055685;28;20033;-80
2022/01/07 07:38:35;;;;;;;21.08;11.13;;;3.30;99.90;;;;;;5055271;28;20040;-80
2022/01/07 07:41:01;;;;;;;23.85;10.50;;;3.30;99.90;;;;;;5055555;28;20029;-80
2022/01/07 07:43:29;;;;;;;17.85;10.50;;;3.20;99.90;;;;;;5055666;28;20033;-80
2022/01/07 07:45:54;;;;;;;20.63;11.38;;;3.20;99.90;;;;;;5055665;28;20115;-80
2022/01/07 07:48:20;;;;;;;19.02;10.07;;;3.20;99.90;;;;;;5055660;28;20103;-80
2022/01/07 07:54:08;;;;;;;18.15;10.05;;;3.00;99.90;;;;;;5055876;28;20036;-80
2022/01/07 07:56:34;;;;;;;18.73;9.95;;;3.10;99.90;;;;;;5054424;28;20025;-80
2022/01/07 07:59:00;;;;;;;17.40;11.75;;;3.20;99.90;;;;;;5054236;28;20025;-80
2022/01/07 08:01:27;;;;;;;20.42;11.20;;;3.40;99.90;;;;;;5052687;28;20052;-80
2022/01/07 08:03:52;;;;;;;19.73;12.15;;;3.60;99.90;;;;;;5052402;28;20083;-80
2022/01/07 08:06:18;;;;;;;23.15;11.45;;;3.70;99.90;;;;;;5052774;28;20427;-82
2022/01/07 08:08:45;;;;;;;17.67;11.10;;;3.50;99.90;;;;;;5048262;28;20472;-82
2022/01/07 08:11:12;;;;;;;25.60;11.18;;;3.40;99.90;;;;;;5036032;28;20017;-82
2022/01/07 08:16:23;;;;;;;21.65;10.65;;;3.30;99.90;;;;;;5035436;28;20036;-82
2022/01/07 08:18:53;;;;;;;18.42;10.07;;;3.40;99.90;;;;;;5033390;28;20044;-82
2022/01/07 08:21:20;;;;;;;20.65;11.35;;;3.60;99.90;;;;;;5038824;28;20103;-82
2022/01/07 08:23:46;;;;;;;21.85;10.07;;;3.70;99.90;;;;;;5033056;28;20029;-83
2022/01/07 08:26:14;;;;;;;24.83;10.63;;;3.70;99.90;;;;;;5038226;28;20022;-82
2022/01/07 08:28:45;;;;;;;19.83;10.27;;;3.70;99.90;;;;;;5032268;28;20032;-82
2022/01/07 08:36:27;;;;;;;23.77;9.82;;;3.40;99.90;;;;;;5042859;28;20059;-82
2022/01/07 08:38:53;;;;;;;17.20;10.10;;;3.40;99.90;;;;;;5054549;28;20078;-82
2022/01/07 08:41:20;;;;;;;15.45;8.75;;;3.30;99.90;;;;;;5042336;28;20033;-83
2022/01/07 08:43:46;;;;;;;17.73;9.52;;;3.40;99.90;;;;;;5036351;28;20036;-82
2022/01/07 08:46:11;;;;;;;17.40;8.30;;;3.40;99.90;;;;;;5033992;28;20107;-82
2022/01/07 08:48:38;;;;;;;16.60;8.43;;;3.40;99.90;;;;;;5037899;28;20057;-82
2022/01/07 08:51:05;;;;;;;16.10;8.20;;;3.40;99.90;;;;;;5036901;28;20473;-82
2022/01/07 08:53:31;;;;;;;16.20;8.38;;;3.50;99.90;;;;;;5035150;28;20096;-83
2022/01/07 08:55:57;;;;;;;19.40;8.77;;;3.70;99.90;;;;;;5039326;28;20100;-82
2022/01/07 08:58:23;;;;;;;18.80;8.45;;;3.70;99.90;;;;;;5035523;28;20030;-82
2022/01/07 09:00:49;;;;;;;21.13;9.32;;;3.80;99.90;;;;;;5038002;28;20029;-83
2022/01/07 09:03:15;;;;;;;24.38;10.15;;;3.80;99.90;;;;;;5041672;28;20036;-83
2022/01/07 09:05:41;;;;;;;19.42;11.18;;;4.00;99.90;;;;;;5037587;28;20603;-83
2022/01/07 09:08:11;;;;;;;29.67;11.90;;;4.10;99.90;;;;;;5035441;28;20061;-83
2022/01/07 09:10:40;;;;;;;22.80;11.68;;;4.20;99.90;;;;;;5042440;28;20025;-80
2022/01/07 09:13:07;;;;;;;25.67;11.32;;;4.40;99.90;;;;;;5051326;28;20096;-80
2022/01/07 09:15:32;;;;;;;33.63;12.13;;;4.50;99.90;;;;;;5051228;28;20439;-81
2022/01/07 09:17:58;;;;;;;23.95;11.57;;;4.60;99.90;;;;;;5051132;28;20644;-80
2022/01/07 09:20:24;;;;;;;23.80;10.85;;;4.70;99.90;;;;;;5050908;28;20079;-80
2022/01/07 09:22:50;;;;;;;23.08;10.20;;;4.70;99.90;;;;;;5051099;28;20060;-80
2022/01/07 09:25:16;;;;;;;16.77;7.28;;;4.70;99.90;;;;;;5049640;28;20099;-80
2022/01/07 09:27:42;;;;;;;18.77;6.15;;;4.70;99.90;;;;;;5049435;28;20160;-80
2022/01/07 09:30:10;;;;;;;14.88;4.95;;;4.60;99.90;;;;;;5051026;28;20186;-80
2022/01/07 09:32:36;;;;;;;8.85;3.55;;;4.70;99.90;;;;;;5043227;28;20056;-80
2022/01/07 09:35:02;;;;;;;13.95;4.43;;;4.80;99.90;;;;;;5047247;28;20057;-80
2022/01/07 09:37:28;;;;;;;12.48;5.13;;;5.20;99.90;;;;;;5050834;28;20396;-80
2022/01/07 09:39:53;;;;;;;14.70;6.05;;;5.10;99.90;;;;;;5050694;28;20029;-80
2022/01/07 09:42:19;;;;;;;19.90;8.30;;;5.40;99.90;;;;;;5046972;28;20033;-81
2022/01/07 09:44:45;;;;;;;19.30;9.63;;;5.70;99.90;;;;;;5044071;28;20025;-80
2022/01/07 09:47:12;;;;;;;25.23;10.40;;;5.70;99.90;;;;;;5046251;28;20021;-80
2022/01/07 09:49:39;;;;;;;22.23;10.27;;;5.70;99.90;;;;;;5034808;28;20111;-80
2022/01/07 09:52:05;;;;;;;25.05;9.80;;;5.50;99.90;;;;;;5036824;28;20432;-80
2022/01/07 09:54:33;;;;;;;19.20;9.40;;;5.50;99.90;;;;;;5034858;28;20045;-80
2022/01/07 09:56:59;;;;;;;18.98;9.02;;;5.50;99.90;;;;;;5035414;28;20025;-81
2022/01/07 09:59:24;;;;;;;21.23;9.85;;;6.20;99.90;;;;;;5030813;28;20040;-83
2022/01/07 10:02:05;;;;;;;17.75;8.43;;;6.50;99.90;;;;;;5031383;28;20030;-83
2022/01/07 10:04:35;;;;;;;;;;;6.30;99.90;;;;;;5043023;28;20032;-83
2022/01/07 10:07:20;;;;;;;16.35;8.55;;;6.30;99.90;;;;;;5050178;28;20216;-83
2022/01/07 10:10:08;;;;;;;11.75;6.70;;;6.30;99.90;;;;;;5043178;28;20190;-82
2022/01/07 10:12:52;;;;;;;14.40;6.82;;;6.10;99.90;;;;;;5048775;28;20074;-82
2022/01/07 10:15:23;;;;;;;14.07;6.25;;;6.00;99.90;;;;;;5050280;28;20017;-83
2022/01/07 10:17:56;;;;;;;13.10;6.00;;;5.90;99.90;;;;;;5049223;28;20029;-83
2022/01/07 10:20:24;;;;;;;14.00;5.75;;;5.80;99.90;;;;;;5049876;28;20079;-82
2022/01/07 10:22:56;;;;;;;10.75;5.18;;;5.70;99.90;;;;;;5049399;28;20092;-82
2022/01/07 10:25:30;;;;;;;13.55;5.50;;;5.60;99.90;;;;;;5050406;28;20086;-82
2022/01/07 10:28:11;;;;;;;11.00;5.97;;;5.60;99.90;;;;;;5050454;28;20074;-82
2022/01/07 10:30:49;;;;;;;13.18;5.50;;;5.60;99.90;;;;;;5041213;28;20037;-82
2022/01/07 10:33:23;;;;;;;9.90;5.63;;;5.60;99.90;;;;;;5049079;28;20037;-83
2022/01/07 10:35:51;;;;;;;11.45;5.82;;;5.50;99.90;;;;;;5049114;28;20029;-82
2022/01/07 10:38:23;;;;;;;15.38;5.30;;;5.50;99.90;;;;;;5050503;28;20100;-82
2022/01/07 10:40:51;;;;;;;14.15;5.50;;;5.60;99.90;;;;;;5051417;28;20473;-83
2022/01/07 10:43:32;;;;;;;9.85;4.88;;;5.60;99.90;;;;;;5051663;28;20129;-82
2022/01/07 10:46:00;;;;;;;11.88;6.15;;;5.50;99.90;;;;;;5053149;28;20025;-83
2022/01/07 10:48:58;;;;;;;11.23;5.07;;;5.50;99.90;;;;;;5052953;28;20413;-83
2022/01/07 10:51:25;;;;;;;10.95;5.30;;;5.50;99.90;;;;;;5049740;28;20052;-82
2022/01/07 10:54:07;;;;;;;12.30;4.72;;;5.60;99.90;;;;;;5044346;28;20017;-82
2022/01/07 10:56:39;;;;;;;11.65;5.28;;;6.40;99.90;;;;;;5049803;28;20021;-82
2022/01/07 10:59:15;;;;;;;7.65;4.20;;;6.60;99.90;;;;;;5045946;28;20023;-82
2022/01/07 11:01:56;;;;;;;11.45;3.47;;;7.10;14.40;;;;;;5053549;28;20075;-82
2022/01/07 11:04:26;;;;;;;12.13;3.17;;;7.40;1.00;;;;;;5053682;28;20045;-82
2022/01/07 11:06:53;;;;;;;12.32;2.05;;;7.40;99.90;;;;;;5040661;28;20610;-82
2022/01/07 11:09:20;;;;;;;7.40;2.10;;;7.00;99.90;;;;;;5035681;28;20065;-82
2022/01/07 11:11:49;;;;;;;7.85;2.40;;;7.00;99.90;;;;;;5039349;28;20036;-82
2022/01/07 11:14:18;;;;;;;9.25;2.83;;;6.80;99.90;;;;;;5039291;28;20021;-82
2022/01/07 11:16:43;;;;;;;6.60;2.67;;;6.70;99.90;;;;;;5039915;28;20393;-82
2022/01/07 11:19:10;;;;;;;8.07;2.15;;;6.50;99.90;;;;;;5046569;28;20464;-82
2022/01/07 11:21:37;;;;;;;8.57;1.48;;;6.70;99.90;;;;;;5046653;28;20036;-82
2022/01/07 11:24:32;;;;;;;6.25;1.45;;;7.10;99.90;;;;;;5042131;28;20047;-82
2022/01/07 11:27:09;;;;;;;6.10;1.38;;;7.00;99.90;;;;;;5053100;28;20025;-82
2022/01/07 11:29:59;;;;;;;10.20;1.17;;;6.80;99.90;;;;;;5053541;28;20090;-82
2022/01/07 11:32:38;;;;;;;5.25;1.08;;;6.60;96.60;;;;;;5039570;28;20124;-82
2022/01/07 11:35:19;;;;;;;7.13;1.48;;;6.70;89.90;;;;;;5036933;28;20503;-80
2022/01/07 11:37:54;;;;;;;8.02;1.17;;;7.00;93.30;;;;;;5041684;28;20025;-81
2022/01/07 11:40:46;;;;;;;4.93;1.05;;;6.90;95.70;;;;;;5042203;28;20488;-81
2022/01/07 11:43:17;;;;;;;6.20;1.27;;;6.70;99.90;;;;;;5044343;28;20464;-81
2022/01/07 11:45:44;;;;;;;4.85;1.20;;;6.60;90.40;;;;;;5050754;28;20040;-81
2022/01/07 11:48:20;;;;;;;6.72;1.95;;;6.40;95.60;;;;;;5053080;28;20017;-80
2022/01/07 11:51:10;;;;;;;8.70;1.00;;;6.30;99.90;;;;;;5053246;28;20052;-80
2022/01/07 11:53:35;;;;;;;8.40;1.88;;;6.20;99.90;;;;;;5052892;28;20497;-80
2022/01/07 11:56:03;;;;;;;5.78;1.33;;;6.20;99.90;;;;;;5050754;28;20070;-80
2022/01/07 11:58:40;;;;;;;12.40;3.80;;;6.10;99.90;;;;;;5050822;28;20037;-81
2022/01/07 12:01:07;;;;;;;11.40;1.90;;;6.00;99.90;;;;;;5051074;28;20044;-80
2022/01/07 12:03:39;;;;;;;6.63;0.93;;;5.90;99.90;;;;;;5051040;28;20496;-81
2022/01/07 12:06:26;;;;;;;4.32;1.10;;;5.80;99.90;;;;;;5049820;28;20082;-80
2022/01/07 12:09:05;;;;;;;13.45;4.05;;;5.80;99.90;;;;;;5050582;28;20045;-82
2022/01/07 12:11:45;;;;;;;12.45;2.40;;;6.20;99.90;;;;;;5050696;28;20049;-82
2022/01/07 12:14:15;;;;;;;6.90;1.35;;;6.60;99.90;;;;;;5050813;28;20356;-81
2022/01/07 12:16:43;;;;;;;6.22;1.33;;;6.90;99.90;;;;;;5051017;28;20021;-81
2022/01/07 12:19:11;;;;;;;8.82;1.23;;;7.00;99.90;;;;;;5052223;28;20031;-81
2022/01/07 12:21:37;;;;;;;5.45;1.23;;;6.90;99.90;;;;;;5046506;28;20071;-81
2022/01/07 12:24:11;;;;;;;6.88;1.33;;;6.80;92.10;;;;;;5041870;28;20033;-81
2022/01/07 12:26:37;;;;;;;7.75;1.33;;;6.60;99.90;;;;;;5045988;28;20041;-81
2022/01/07 12:29:03;;;;;;;5.65;1.13;;;6.40;99.90;;;;;;5050851;28;20033;-81
2022/01/07 12:31:29;;;;;;;5.80;1.40;;;6.40;99.90;;;;;;5050561;28;20079;-80
2022/01/07 12:33:57;;;;;;;6.28;1.10;;;6.40;99.90;;;;;;5043617;28;20481;-81
2022/01/07 12:36:32;;;;;;;9.30;1.30;;;6.40;99.90;;;;;;5041778;28;20063;-81
2022/01/07 12:39:25;;;;;;;8.02;1.45;;;6.30;99.90;;;;;;5050202;28;20062;-81
2022/01/07 12:41:54;;;;;;;6.53;1.30;;;6.30;99.90;;;;;;5046009;28;20021;-82
2022/01/07 12:44:20;;;;;;;8.43;1.23;;;6.20;99.90;;;;;;5050088;28;20033;-82
2022/01/07 12:46:55;;;;;;;6.38;1.30;;;6.20;99.90;;;;;;5049389;28;20093;-82
2022/01/07 12:49:37;;;;;;;8.65;1.30;;;6.20;99.90;;;;;;5049916;28;20116;-81
2022/01/07 12:52:05;;;;;;;9.20;1.08;;;6.10;99.90;;;;;;5050156;28;20029;-81
2022/01/07 12:54:31;;;;;;;7.72;1.00;;;6.10;99.90;;;;;;5040817;28;20441;-81
2022/01/07 12:56:57;;;;;;;13.50;1.20;;;6.10;99.90;;;;;;5035861;28;20430;-81
2022/01/07 12:59:25;;;;;;;6.88;1.50;;;6.20;99.90;;;;;;5037858;28;20036;-81
2022/01/07 13:01:51;;;;;;;11.80;2.22;;;6.20;99.90;;;;;;5043288;28;20017;-81
2022/01/07 13:04:20;;;;;;;7.15;1.40;;;6.10;99.90;;;;;;5043246;28;20017;-82
2022/01/07 13:06:52;;;;;;;4.90;0.90;;;6.10;99.90;;;;;;5047290;28;20460;-82
2022/01/07 13:09:24;;;;;;;7.25;1.45;;;6.10;99.90;;;;;;5049857;28;20059;-83
2022/01/07 13:11:53;;;;;;;9.07;1.98;;;6.20;89.60;;;;;;5048007;28;20378;-83
2022/01/07 13:14:20;;;;;;;5.50;1.20;;;6.10;44.20;;;;;;5034130;28;20018;-83
2022/01/07 13:16:58;;;;;;;6.20;1.00;;;6.10;57.40;;;;;;5034238;28;20452;-83
2022/01/07 13:19:24;;;;;;;7.05;0.93;;;6.00;94.10;;;;;;5029915;28;20068;-83
2022/01/07 13:21:52;;;;;;;6.38;1.13;;;6.00;62.80;;;;;;5035464;28;20072;-83
2022/01/07 13:24:22;;;;;;;6.47;2.00;;;6.00;38.90;;;;;;5048395;28;20025;-81